Hewitt, TX (76643)

6:51 AM CDT on March 24, 2017 (GMT -0500)
Travis Lane | | Change Station

Elev 646 ft 31.47 °N, 97.21 °W | Updated 1 minute ago

Overcast
Overcast
66.5 °F
Feels Like 66.5 °F
N
1.0
Wind Variable Wind from SSW
Gusts 5.0 mph

Today
High -- | Low -- °F
--% Chance of Precip.
Yesterday
High -- | Low -- °F
Precip. -- in
Pressure 29.96 in
Visibility 10.0 miles
Clouds Few 3000 ft
Mostly Cloudy 4300 ft
Mostly Cloudy 6000 ft
Dew Point 61 °F
Humidity 83%
Rainfall 0.00 in
Snow Depth Not available.
7:27 AM 7:43 PM
Waning Crescent, 16% visible
METAR KPWG 241056Z AUTO 18010KT 10SM FEW030 BKN043 BKN060 20/16 A2994 RMK AO2 SLP143 T02000156
Pressure 29.96 in
Visibility 10.0 miles
Clouds Few 3000 ft
Mostly Cloudy 4300 ft
Mostly Cloudy 6000 ft
Dew Point 61 °F
Humidity 83%
Rainfall 0.00 in
Snow Depth Not available.
7:27 AM 7:43 PM
Waning Crescent, 16% visible
METAR KPWG 241056Z AUTO 18010KT 10SM FEW030 BKN043 BKN060 20/16 A2994 RMK AO2 SLP143 T02000156

Get Severe Weather Alerts

Thanks for signing up!

Be on the lookout for a verification email in your inbox.

You'll start receiving the daily forecast at 8 AM.

×

10-Day Weather Forecast

Almanac

Astronomy

Mar. 24, 2017 Rise Set
Actual Time
Civil Twilight
Nautical Twilight
Astronomical Twilight
Moon
Length of Visible Light
Length of Day
Tomorrow will be .
, % of the Moon is Illuminated

Today's Extremes

State Highs State Lows

Community

WunderPhotos

Upload Photos

1,962,540 photos uploaded!

WunderBlog® & News

Nearby

Air Quality

  Air Quality AQ Index Pollutant
Not available.

Snow Depth

Station Depth Elevation

Earthquake Activity

City Distance Mag. Time & Date
Minimum magnitude displayed is 2.5.

Earthquake Activity

City Distance Mag. Time & Date
Minimum magnitude displayed is 2.5.

Coastal Water Temperatures

Place Temperature

Stations

Nearby Weather Stations

Station Location Temp. Windchill Dew Point Humidity Wind Precip. Elev Updated Type
                   

Watches & Warnings

There are currently no watches in effect.